createdAt,value
2023-07-18T00:14:19.265Z,76.60
2023-07-18T00:17:32.852Z,76.60
2023-07-18T00:20:15.583Z,76.80
2023-07-18T00:25:56.763Z,76.80
2023-07-18T00:29:40.034Z,77.40
2023-07-18T00:39:11.883Z,77.20
2023-07-18T00:41:48.439Z,77.40
2023-07-18T00:44:40.770Z,77.30
2023-07-18T00:51:01.900Z,77.50
2023-07-18T00:53:47.367Z,77.40
2023-07-18T01:03:31.659Z,77.80
2023-07-18T01:09:55.634Z,77.90
2023-07-18T01:19:51.963Z,78.00
2023-07-18T01:22:39.427Z,78.00
2023-07-18T01:26:16.317Z,78.10
2023-07-18T01:29:08.487Z,78.20
2023-07-18T01:31:48.746Z,78.10
2023-07-18T01:34:25.885Z,78.10
2023-07-18T01:37:08.063Z,78.20
2023-07-18T01:39:40.870Z,78.20
2023-07-18T01:42:08.047Z,78.20
2023-07-18T01:45:17.733Z,78.20
2023-07-18T01:48:14.273Z,78.30
2023-07-18T01:55:15.715Z,78.20
2023-07-18T01:59:06.829Z,78.10
2023-07-18T02:08:50.398Z,78.10
2023-07-18T02:12:00.916Z,78.10
2023-07-18T02:15:23.769Z,78.00
2023-07-18T02:17:57.010Z,77.90
2023-07-18T02:20:29.390Z,77.70
2023-07-18T02:23:28.323Z,77.80
2023-07-18T02:26:07.500Z,77.70
2023-07-18T02:28:59.296Z,77.70
2023-07-18T02:31:34.911Z,78.20
2023-07-18T02:34:07.992Z,77.60
2023-07-18T02:49:32.291Z,78.00
2023-07-18T02:52:32.988Z,78.00
2023-07-18T02:55:34.236Z,78.10
2023-07-18T03:02:13.827Z,78.10
2023-07-18T03:11:39.770Z,78.30
2023-07-18T03:17:57.520Z,78.30
2023-07-18T03:23:10.819Z,78.40
2023-07-18T03:24:03.276Z,78.50
2023-07-18T03:40:29.963Z,78.90
2023-07-18T03:47:21.272Z,79.00
2023-07-18T03:50:17.949Z,79.00
2023-07-18T03:53:05.387Z,79.60
2023-07-18T03:55:41.210Z,79.10
2023-07-18T03:58:15.715Z,79.20
2023-07-18T04:15:07.143Z,79.40
2023-07-18T04:18:29.246Z,79.40
2023-07-18T04:21:20.420Z,79.40
2023-07-18T04:24:43.338Z,79.50
2023-07-18T04:29:58.929Z,79.60
2023-07-18T04:33:36.797Z,79.70
2023-07-18T04:35:35.480Z,79.70
2023-07-18T04:38:12.876Z,79.70
2023-07-18T04:43:27.092Z,79.70
2023-07-18T04:43:56.183Z,79.80
2023-07-18T04:50:16.601Z,79.90
2023-07-18T04:55:59.921Z,79.80
2023-07-18T05:01:33.475Z,79.90
2023-07-18T05:04:27.055Z,79.80
2023-07-18T05:07:29.047Z,79.80
2023-07-18T05:10:01.493Z,79.80
2023-07-18T05:12:35.275Z,79.70
2023-07-18T05:15:21.916Z,79.70
2023-07-18T05:17:48.953Z,79.70
2023-07-18T05:20:30.770Z,79.70
2023-07-18T05:23:37.636Z,79.70
2023-07-18T05:26:19.151Z,79.60
2023-07-18T05:28:58.992Z,79.50
2023-07-18T05:35:37.566Z,79.30
2023-07-18T05:38:22.394Z,79.20
2023-07-18T05:41:48.224Z,79.00
2023-07-18T05:48:28.845Z,78.90
2023-07-18T05:51:03.363Z,78.70
2023-07-18T05:53:52.718Z,78.60
2023-07-18T05:56:28.521Z,78.60
2023-07-18T05:59:23.970Z,78.50
2023-07-18T06:09:49.798Z,78.20
2023-07-18T06:13:02.632Z,77.90
2023-07-18T06:16:30.276Z,77.80
2023-07-18T06:19:03.488Z,77.60
2023-07-18T06:25:22.949Z,77.20
2023-07-18T06:28:52.054Z,77.00
2023-07-18T06:36:07.562Z,76.50
2023-07-18T07:05:52.232Z,74.50
2023-07-18T07:08:56.243Z,74.50
2023-07-18T07:19:57.500Z,73.90
2023-07-18T07:26:05.440Z,73.40
2023-07-18T07:28:37.643Z,73.10
2023-07-18T07:31:04.976Z,73.00
2023-07-18T07:33:43.871Z,72.80
2023-07-18T07:36:16.703Z,72.50
2023-07-18T07:38:55.335Z,72.30
2023-07-18T07:41:28.317Z,72.10
2023-07-18T07:43:55.481Z,71.70
2023-07-18T07:46:22.920Z,71.50
2023-07-18T08:00:33.399Z,69.80
2023-07-18T08:07:03.531Z,69.50
2023-07-18T08:09:51.332Z,69.30
2023-07-18T08:12:26.351Z,69.20
2023-07-18T08:15:07.840Z,69.10
2023-07-18T08:17:46.689Z,68.90
2023-07-18T08:20:26.539Z,68.50
2023-07-18T08:22:53.806Z,68.20
2023-07-18T08:25:38.305Z,68.40
2023-07-18T08:28:21.563Z,67.50
2023-07-18T08:31:18.847Z,67.30
2023-07-18T08:33:50.936Z,67.10
2023-07-18T08:40:30.621Z,66.50
2023-07-18T08:43:02.436Z,66.40
2023-07-18T08:49:46.720Z,66.20
2023-07-18T08:57:11.033Z,65.80
2023-07-18T09:07:29.796Z,64.70
2023-07-18T09:09:56.753Z,64.40
2023-07-18T09:12:23.776Z,64.00
2023-07-18T09:14:57.139Z,63.70
2023-07-18T09:17:24.364Z,63.40
2023-07-18T09:19:51.487Z,63.40
2023-07-18T09:22:22.287Z,63.40
2023-07-18T09:25:01.055Z,63.10
2023-07-18T09:27:28.088Z,62.80
2023-07-18T09:29:55.954Z,62.80
2023-07-18T09:32:24.735Z,62.60
2023-07-18T09:34:54.745Z,62.40
2023-07-18T09:37:21.858Z,62.10
2023-07-18T09:39:49.095Z,62.00
2023-07-18T09:42:20.118Z,61.90
2023-07-18T09:44:51.962Z,61.70
2023-07-18T09:47:20.037Z,62.20
2023-07-18T09:49:47.873Z,61.60
2023-07-18T09:52:17.621Z,61.60
2023-07-18T09:54:44.972Z,61.60
2023-07-18T09:57:12.341Z,61.40
2023-07-18T09:59:40.311Z,61.30
2023-07-18T10:02:10.581Z,61.10
2023-07-18T10:04:38.173Z,60.90
2023-07-18T10:07:05.463Z,60.80
2023-07-18T10:09:33.281Z,60.50
2023-07-18T10:12:00.354Z,60.20
2023-07-18T10:14:31.198Z,60.10
2023-07-18T10:17:06.658Z,60.00
2023-07-18T10:19:51.083Z,59.90
2023-07-18T10:22:31.664Z,59.70
2023-07-18T10:25:08.810Z,59.50
2023-07-18T10:27:47.014Z,59.30
2023-07-18T10:30:18.769Z,59.10
2023-07-18T10:33:12.124Z,59.00
2023-07-18T10:35:51.617Z,58.50
2023-07-18T10:38:24.994Z,58.50
2023-07-18T10:40:53.801Z,58.50
2023-07-18T10:43:21.698Z,58.60
2023-07-18T10:46:12.853Z,58.60
2023-07-18T10:48:39.957Z,58.40
2023-07-18T10:51:12.119Z,58.20
2023-07-18T10:53:39.111Z,58.00
2023-07-18T10:56:06.267Z,57.80
2023-07-18T10:58:33.366Z,57.70
2023-07-18T11:01:00.350Z,57.60
2023-07-18T11:03:37.450Z,57.50
2023-07-18T11:06:09.916Z,57.30
2023-07-18T11:08:40.351Z,57.00
2023-07-18T11:11:07.770Z,56.80
2023-07-18T11:13:53.361Z,56.40
2023-07-18T11:16:45.220Z,56.10
2023-07-18T11:22:06.855Z,56.00
2023-07-18T11:24:37.799Z,55.90
2023-07-18T11:27:22.425Z,55.80
2023-07-18T11:30:02.932Z,55.70
2023-07-18T11:32:50.492Z,55.50
2023-07-18T11:35:27.350Z,55.50
2023-07-18T11:38:02.374Z,55.50
2023-07-18T11:40:33.797Z,55.50
2023-07-18T11:43:53.282Z,55.30
2023-07-18T11:46:48.129Z,55.10
2023-07-18T11:49:22.204Z,54.90
2023-07-18T11:51:52.281Z,55.00
2023-07-18T11:54:27.462Z,54.90
2023-07-18T11:56:56.978Z,54.70
2023-07-18T11:59:27.163Z,54.60
2023-07-18T12:01:54.397Z,54.40
2023-07-18T12:05:26.001Z,54.30
2023-07-18T12:08:04.927Z,54.00
2023-07-18T12:10:37.445Z,54.10
2023-07-18T12:13:07.494Z,54.10
2023-07-18T12:15:43.704Z,54.10
2023-07-18T12:18:13.195Z,53.90
2023-07-18T12:20:41.420Z,53.80
2023-07-18T12:23:22.075Z,53.80
2023-07-18T12:26:00.247Z,53.60
2023-07-18T12:28:38.152Z,53.60
2023-07-18T12:31:08.150Z,53.50
2023-07-18T12:33:37.479Z,53.50
2023-07-18T12:36:08.189Z,53.40
2023-07-18T12:38:35.275Z,53.30
2023-07-18T12:41:02.322Z,53.10
2023-07-18T12:43:32.334Z,53.00
2023-07-18T12:46:02.662Z,53.00
2023-07-18T12:48:32.773Z,52.90
2023-07-18T12:51:10.516Z,53.00
2023-07-18T12:53:50.730Z,53.00
2023-07-18T12:56:23.932Z,53.00
2023-07-18T12:58:53.546Z,52.90
2023-07-18T13:01:23.653Z,53.00
2023-07-18T13:03:50.920Z,53.00
2023-07-18T13:06:18.304Z,53.10
2023-07-18T13:08:45.740Z,53.20
2023-07-18T13:11:14.071Z,53.20
2023-07-18T13:13:42.739Z,53.20
2023-07-18T13:16:09.860Z,53.20
2023-07-18T13:18:37.540Z,53.10
2023-07-18T13:21:05.388Z,53.80
2023-07-18T13:23:32.463Z,53.20
2023-07-18T13:25:59.406Z,53.20
2023-07-18T13:28:26.447Z,53.20
2023-07-18T13:37:29.913Z,53.50
2023-07-18T13:43:37.316Z,53.20
2023-07-18T13:46:04.298Z,53.20
2023-07-18T13:48:33.794Z,53.10
2023-07-18T13:51:01.249Z,52.90
2023-07-18T13:53:28.238Z,52.90
2023-07-18T13:55:56.269Z,52.90
2023-07-18T13:58:23.577Z,53.00
2023-07-18T14:00:50.779Z,52.80
2023-07-18T14:03:33.335Z,52.80
2023-07-18T14:06:03.136Z,52.80
2023-07-18T14:08:31.463Z,52.80
2023-07-18T14:10:58.555Z,52.80
2023-07-18T14:13:25.898Z,52.80
2023-07-18T14:20:33.775Z,52.50
2023-07-18T14:24:06.548Z,52.50
2023-07-18T14:26:34.338Z,52.50
2023-07-18T14:29:01.835Z,52.50
2023-07-18T14:31:35.056Z,52.30
2023-07-18T14:34:15.748Z,52.20
2023-07-18T14:36:43.257Z,52.10
2023-07-18T14:39:19.956Z,52.20
2023-07-18T14:41:54.760Z,52.20
2023-07-18T14:48:40.425Z,52.20
2023-07-18T14:51:18.040Z,52.30
2023-07-18T14:53:58.318Z,52.40
2023-07-18T14:56:30.602Z,52.30
2023-07-18T14:59:05.850Z,52.30
2023-07-18T15:01:33.520Z,52.20
2023-07-18T15:04:09.065Z,52.20
2023-07-18T15:06:58.718Z,52.10
2023-07-18T15:09:36.906Z,52.00
2023-07-18T15:12:07.169Z,52.00
2023-07-18T15:14:58.577Z,52.10
2023-07-18T15:17:35.849Z,52.10
2023-07-18T15:20:02.942Z,52.20
2023-07-18T15:22:30.195Z,52.20
2023-07-18T15:24:57.264Z,52.00
2023-07-18T15:27:29.761Z,51.90
2023-07-18T15:30:07.314Z,51.80
2023-07-18T15:36:06.777Z,51.90
2023-07-18T15:42:03.444Z,52.10
2023-07-18T15:44:30.792Z,52.20
2023-07-18T15:55:07.327Z,52.50
2023-07-18T16:01:55.033Z,52.50
2023-07-18T16:04:44.244Z,52.40
2023-07-18T16:07:18.688Z,52.50
2023-07-18T16:10:07.006Z,52.70
2023-07-18T16:12:44.461Z,52.60
2023-07-18T16:15:11.682Z,52.60
2023-07-18T16:17:44.270Z,52.60
2023-07-18T16:20:19.438Z,52.60
2023-07-18T16:23:02.811Z,52.50
2023-07-18T16:25:30.311Z,52.50
2023-07-18T16:27:57.312Z,52.60
2023-07-18T16:30:36.868Z,52.60
2023-07-18T16:33:06.346Z,52.60
2023-07-18T16:35:35.083Z,52.80
2023-07-18T16:38:22.551Z,52.90
2023-07-18T16:40:58.705Z,52.90
2023-07-18T16:43:31.691Z,53.40
2023-07-18T16:46:38.614Z,52.90
2023-07-18T16:49:30.139Z,52.80
2023-07-18T16:56:19.996Z,52.80
2023-07-18T16:58:51.459Z,52.90
2023-07-18T17:01:30.659Z,53.00
2023-07-18T17:03:58.794Z,53.10
2023-07-18T17:06:34.109Z,53.20
2023-07-18T17:09:01.234Z,53.30
2023-07-18T17:11:31.096Z,53.20
2023-07-18T17:14:00.146Z,53.80
2023-07-18T17:16:27.225Z,53.10
2023-07-18T17:18:54.344Z,53.00
2023-07-18T17:21:21.198Z,53.00
2023-07-18T17:23:48.157Z,53.00
2023-07-18T17:26:17.777Z,53.10
2023-07-18T17:28:44.991Z,53.10
2023-07-18T17:31:12.024Z,53.00
2023-07-18T17:33:39.101Z,53.00
2023-07-18T17:36:07.023Z,53.00
2023-07-18T17:38:34.328Z,53.00
2023-07-18T17:41:01.495Z,53.00
2023-07-18T17:43:28.704Z,53.00
2023-07-18T17:45:55.678Z,53.10
2023-07-18T17:48:24.520Z,53.10
2023-07-18T17:50:51.524Z,53.20
2023-07-18T17:53:18.594Z,53.20
2023-07-18T17:55:45.524Z,53.30
2023-07-18T17:58:12.507Z,53.10
2023-07-18T18:00:39.538Z,53.20
2023-07-18T18:03:06.608Z,53.30
2023-07-18T18:05:51.587Z,53.30
2023-07-18T18:08:18.538Z,53.40
2023-07-18T18:10:46.398Z,53.50
2023-07-18T18:15:28.404Z,53.50
2023-07-18T18:16:55.537Z,53.50
2023-07-18T18:20:20.259Z,53.40
2023-07-18T18:26:31.899Z,53.60
2023-07-18T18:29:42.334Z,53.60
2023-07-18T18:35:52.991Z,53.50
2023-07-18T18:38:34.727Z,53.50
2023-07-18T18:41:27.107Z,53.50
2023-07-18T18:44:50.836Z,53.50
2023-07-18T18:47:23.705Z,53.50
2023-07-18T19:09:09.791Z,54.10
2023-07-18T19:14:22.967Z,54.20
2023-07-18T19:20:36.678Z,54.80
2023-07-18T19:38:24.417Z,54.70
2023-07-18T19:40:51.705Z,54.80
2023-07-18T19:43:19.027Z,54.90
2023-07-18T19:45:48.956Z,55.00
2023-07-18T19:48:18.862Z,55.20
2023-07-18T19:55:27.394Z,56.00
2023-07-18T19:57:54.573Z,56.30
2023-07-18T20:00:47.183Z,56.60
2023-07-18T20:07:07.713Z,57.60
2023-07-18T20:09:41.999Z,57.70
2023-07-18T20:12:09.692Z,57.90
2023-07-18T20:14:40.225Z,58.00
2023-07-18T20:17:07.265Z,58.10
2023-07-18T20:19:57.663Z,58.10
2023-07-18T20:22:24.706Z,58.10
2023-07-18T20:24:51.721Z,58.20
2023-07-18T20:27:19.381Z,58.20
2023-07-18T20:29:46.535Z,58.20
2023-07-18T20:32:13.622Z,58.20
2023-07-18T20:34:41.320Z,58.20
2023-07-18T20:37:08.448Z,58.20
2023-07-18T20:39:36.351Z,58.30
2023-07-18T20:42:04.157Z,58.50
2023-07-18T20:44:31.253Z,58.50
2023-07-18T20:46:58.272Z,58.50
2023-07-18T20:49:28.086Z,58.50
2023-07-18T20:51:55.196Z,58.60
2023-07-18T20:54:22.213Z,58.60
2023-07-18T20:56:49.143Z,58.70
2023-07-18T20:59:16.099Z,58.80
2023-07-18T21:01:43.063Z,58.90
2023-07-18T21:04:10.132Z,58.90
2023-07-18T21:06:37.191Z,59.00
2023-07-18T21:09:04.310Z,59.10
2023-07-18T21:11:31.325Z,59.00
2023-07-18T21:13:58.375Z,59.00
2023-07-18T21:16:25.568Z,59.00
2023-07-18T21:18:52.598Z,59.20
2023-07-18T21:21:19.960Z,59.20
2023-07-18T21:23:47.567Z,59.20
2023-07-18T21:26:14.682Z,59.30
2023-07-18T21:28:53.677Z,59.30
2023-07-18T21:31:28.719Z,59.40
2023-07-18T21:33:55.678Z,59.50
2023-07-18T21:36:22.921Z,59.60
2023-07-18T21:38:49.918Z,59.60
2023-07-18T21:41:16.995Z,59.80
2023-07-18T21:43:44.192Z,59.90
2023-07-18T21:46:11.296Z,60.00
2023-07-18T21:48:38.381Z,60.00
2023-07-18T21:51:05.371Z,60.10
2023-07-18T21:53:32.643Z,60.10
2023-07-18T21:56:01.498Z,60.20
2023-07-18T21:58:30.614Z,60.20
2023-07-18T22:00:58.087Z,60.20
2023-07-18T22:03:25.303Z,60.30
2023-07-18T22:05:52.481Z,60.30
2023-07-18T22:08:19.486Z,60.30
2023-07-18T22:10:46.540Z,60.40
2023-07-18T22:13:15.436Z,60.50
2023-07-18T22:15:43.111Z,60.60
2023-07-18T22:18:25.472Z,60.70
2023-07-18T22:20:56.970Z,60.80
2023-07-18T22:23:23.925Z,60.80
2023-07-18T22:26:03.617Z,60.90
2023-07-18T22:28:37.787Z,61.00
2023-07-18T22:31:04.802Z,61.10
2023-07-18T22:33:31.754Z,61.20
2023-07-18T22:35:58.801Z,61.30
2023-07-18T22:38:25.785Z,61.30
2023-07-18T22:40:52.823Z,61.30
2023-07-18T22:43:20.071Z,61.40
2023-07-18T22:45:49.498Z,61.40
2023-07-18T22:48:17.208Z,61.60
2023-07-18T22:50:44.148Z,61.60
2023-07-18T22:53:11.102Z,61.60
2023-07-18T22:55:38.128Z,61.60
2023-07-18T22:58:05.083Z,61.60
2023-07-18T23:00:34.804Z,61.60
2023-07-18T23:03:01.974Z,61.50
2023-07-18T23:05:29.072Z,61.40
2023-07-18T23:07:56.062Z,61.40
2023-07-18T23:10:23.083Z,61.40
2023-07-18T23:12:50.073Z,61.40
2023-07-18T23:15:17.134Z,61.40
2023-07-18T23:17:44.171Z,61.40
2023-07-18T23:20:11.736Z,61.50
2023-07-18T23:22:38.669Z,61.50
2023-07-18T23:25:06.447Z,61.50
2023-07-18T23:27:33.764Z,61.50
2023-07-18T23:30:00.922Z,61.60
2023-07-18T23:32:28.136Z,61.70
2023-07-18T23:34:55.188Z,61.80
2023-07-18T23:37:22.207Z,61.90
2023-07-18T23:39:49.333Z,62.00
2023-07-18T23:42:16.280Z,62.10
2023-07-18T23:44:43.504Z,62.10
2023-07-18T23:47:10.520Z,62.20
2023-07-18T23:49:37.553Z,62.30
2023-07-18T23:52:04.983Z,62.40
2023-07-18T23:54:32.003Z,62.50
2023-07-18T23:56:59.027Z,62.50
2023-07-18T23:59:26.014Z,62.70
